Aviation Digital Data Service (ADDS)

Output produced by METARs form (1734 UTC 03 June 2020)
found at http://www.aviationweather.gov/metar/data/
 
METAR text: OEDF 031700Z 03007KT CAVOK 37/18 Q1001 NOSIG
Conditions at: OEDF (KING FAHD INTL , SA) observed 1700 UTC 03 June 2020
Temperature: 37.0°C (99°F)
Dewpoint: 18.0°C (64°F) [RH = 33%]
Pressure (altimeter): 29.56 inches Hg (1001.0 mb)
Winds: from the NNE (30 degrees) at 8 MPH (7 knots; 3.6 m/s)
Visibility: 6 or more miles (10+ km)
Ceiling: ceiling and visibility are OK
Clouds: unknown
Weather: no significant weather observed at this time

METAR text: OEDF 031600Z 03011KT CAVOK 39/16 Q1001 NOSIG
Conditions at: OEDF (KING FAHD INTL , SA) observed 1600 UTC 03 June 2020
Temperature: 39.0°C (102°F)
Dewpoint: 16.0°C (61°F) [RH = 26%]
Pressure (altimeter): 29.56 inches Hg (1001.0 mb)
Winds: from the NNE (30 degrees) at 13 MPH (11 knots; 5.7 m/s)
Visibility: 6 or more miles (10+ km)
Ceiling: ceiling and visibility are OK
Clouds: unknown
Weather: no significant weather observed at this time

METAR text: OEDF 031500Z 03010KT CAVOK 43/16 Q1000 NOSIG
Conditions at: OEDF (KING FAHD INTL , SA) observed 1500 UTC 03 June 2020
Temperature: 43.0°C (109°F)
Dewpoint: 16.0°C (61°F) [RH = 21%]
Pressure (altimeter): 29.53 inches Hg (1000.0 mb)
Winds: from the NNE (30 degrees) at 12 MPH (10 knots; 5.1 m/s)
Visibility: 6 or more miles (10+ km)
Ceiling: ceiling and visibility are OK
Clouds: unknown
Weather: no significant weather observed at this time

METAR text: OEDF 031400Z 35009KT CAVOK 47/07 Q1000 NOSIG
Conditions at: OEDF (KING FAHD INTL , SA) observed 1400 UTC 03 June 2020
Temperature: 47.0°C (117°F)
Dewpoint: 7.0°C (45°F) [RH =  9%]
Pressure (altimeter): 29.53 inches Hg (1000.0 mb)
Winds: from the N (350 degrees) at 10 MPH (9 knots; 4.6 m/s)
Visibility: 6 or more miles (10+ km)
Ceiling: ceiling and visibility are OK
Clouds: unknown
Weather: no significant weather observed at this time

METAR text: OEDF 031300Z 36010KT CAVOK 48/05 Q1000 NOSIG
Conditions at: OEDF (KING FAHD INTL , SA) observed 1300 UTC 03 June 2020
Temperature: 48.0°C (118°F)
Dewpoint: 5.0°C (41°F) [RH =  8%]
Pressure (altimeter): 29.53 inches Hg (1000.0 mb)
Winds: from the N (360 degrees) at 12 MPH (10 knots; 5.1 m/s)
Visibility: 6 or more miles (10+ km)
Ceiling: ceiling and visibility are OK
Clouds: unknown
Weather: no significant weather observed at this time

METAR text: OEDF 031200Z 35009KT CAVOK 48/05 Q1000 NOSIG
Conditions at: OEDF (KING FAHD INTL , SA) observed 1200 UTC 03 June 2020
Temperature: 48.0°C (118°F)
Dewpoint: 5.0°C (41°F) [RH =  8%]
Pressure (altimeter): 29.53 inches Hg (1000.0 mb)
Winds: from the N (350 degrees) at 10 MPH (9 knots; 4.6 m/s)
Visibility: 6 or more miles (10+ km)
Ceiling: ceiling and visibility are OK
Clouds: unknown
Weather: no significant weather observed at this time

METAR text: OEDF 031100Z 31012KT CAVOK 49/04 Q1000 NOSIG
Conditions at: OEDF (KING FAHD INTL , SA) observed 1100 UTC 03 June 2020
Temperature: 49.0°C (120°F)
Dewpoint: 4.0°C (39°F) [RH =  7%]
Pressure (altimeter): 29.53 inches Hg (1000.0 mb)
Winds: from the NW (310 degrees) at 14 MPH (12 knots; 6.2 m/s)
Visibility: 6 or more miles (10+ km)
Ceiling: ceiling and visibility are OK
Clouds: unknown
Weather: no significant weather observed at this time

METAR text: OEDF 031000Z 31013KT CAVOK 49/04 Q1001 NOSIG
Conditions at: OEDF (KING FAHD INTL , SA) observed 1000 UTC 03 June 2020
Temperature: 49.0°C (120°F)
Dewpoint: 4.0°C (39°F) [RH =  7%]
Pressure (altimeter): 29.56 inches Hg (1001.0 mb)
Winds: from the NW (310 degrees) at 15 MPH (13 knots; 6.7 m/s)
Visibility: 6 or more miles (10+ km)
Ceiling: ceiling and visibility are OK
Clouds: unknown
Weather: no significant weather observed at this time

METAR text: OEDF 030900Z 30001G12KT CAVOK 48/05 Q1002 NOSIG
Conditions at: OEDF (KING FAHD INTL , SA) observed 0900 UTC 03 June 2020
Temperature: 48.0°C (118°F)
Dewpoint: 5.0°C (41°F) [RH =  8%]
Pressure (altimeter): 29.59 inches Hg (1002.0 mb)
Winds: from the WNW (300 degrees) at 1 MPH (1 knots; 0.5 m/s)
gusting to 14 MPH (12 knots; 6.2 m/s)
Visibility: 6 or more miles (10+ km)
Ceiling: ceiling and visibility are OK
Clouds: unknown
Weather: no significant weather observed at this time

METAR text: OEDF 030800Z 27010KT CAVOK 46/08 Q1003 NOSIG
Conditions at: OEDF (KING FAHD INTL , SA) observed 0800 UTC 03 June 2020
Temperature: 46.0°C (115°F)
Dewpoint: 8.0°C (46°F) [RH = 11%]
Pressure (altimeter): 29.62 inches Hg (1003.0 mb)
Winds: from the W (270 degrees) at 12 MPH (10 knots; 5.1 m/s)
Visibility: 6 or more miles (10+ km)
Ceiling: ceiling and visibility are OK
Clouds: unknown
Weather: no significant weather observed at this time

METAR text: OEDF 030700Z 24009KT CAVOK 44/07 Q1003 NOSIG
Conditions at: OEDF (KING FAHD INTL , SA) observed 0700 UTC 03 June 2020
Temperature: 44.0°C (111°F)
Dewpoint: 7.0°C (45°F) [RH = 11%]
Pressure (altimeter): 29.62 inches Hg (1003.0 mb)
Winds: from the WSW (240 degrees) at 10 MPH (9 knots; 4.6 m/s)
Visibility: 6 or more miles (10+ km)
Ceiling: ceiling and visibility are OK
Clouds: unknown
Weather: no significant weather observed at this time

METAR text: OEDF 030600Z 27007KT CAVOK 43/07 Q1003 NOSIG
Conditions at: OEDF (KING FAHD INTL , SA) observed 0600 UTC 03 June 2020
Temperature: 43.0°C (109°F)
Dewpoint: 7.0°C (45°F) [RH = 12%]
Pressure (altimeter): 29.62 inches Hg (1003.0 mb)
Winds: from the W (270 degrees) at 8 MPH (7 knots; 3.6 m/s)
Visibility: 6 or more miles (10+ km)
Ceiling: ceiling and visibility are OK
Clouds: unknown
Weather: no significant weather observed at this time

METAR text: OEDF 030500Z 23006KT CAVOK 37/20 Q1003 NOSIG
Conditions at: OEDF (KING FAHD INTL , SA) observed 0500 UTC 03 June 2020
Temperature: 37.0°C (99°F)
Dewpoint: 20.0°C (68°F) [RH = 37%]
Pressure (altimeter): 29.62 inches Hg (1003.0 mb)
Winds: from the SW (230 degrees) at 7 MPH (6 knots; 3.1 m/s)
Visibility: 6 or more miles (10+ km)
Ceiling: ceiling and visibility are OK
Clouds: unknown
Weather: no significant weather observed at this time

METAR text: OEDF 030400Z 24005KT CAVOK 34/19 Q1003 NOSIG
Conditions at: OEDF (KING FAHD INTL , SA) observed 0400 UTC 03 June 2020
Temperature: 34.0°C (93°F)
Dewpoint: 19.0°C (66°F) [RH = 41%]
Pressure (altimeter): 29.62 inches Hg (1003.0 mb)
Winds: from the WSW (240 degrees) at 6 MPH (5 knots; 2.6 m/s)
Visibility: 6 or more miles (10+ km)
Ceiling: ceiling and visibility are OK
Clouds: unknown
Weather: no significant weather observed at this time

METAR text: OEDF 030300Z 22003KT CAVOK 28/22 Q1002 NOSIG
Conditions at: OEDF (KING FAHD INTL , SA) observed 0300 UTC 03 June 2020
Temperature: 28.0°C (82°F)
Dewpoint: 22.0°C (72°F) [RH = 70%]
Pressure (altimeter): 29.59 inches Hg (1002.0 mb)
Winds: from the SW (220 degrees) at 3 MPH (3 knots; 1.5 m/s)
Visibility: 6 or more miles (10+ km)
Ceiling: ceiling and visibility are OK
Clouds: unknown
Weather: no significant weather observed at this time

METAR text: OEDF 030200Z 23003KT 8000 NSC 28/22 Q1002 NOSIG
Conditions at: OEDF (KING FAHD INTL , SA) observed 0200 UTC 03 June 2020
Temperature: 28.0°C (82°F)
Dewpoint: 22.0°C (72°F) [RH = 70%]
Pressure (altimeter): 29.59 inches Hg (1002.0 mb)
Winds: from the SW (230 degrees) at 3 MPH (3 knots; 1.5 m/s)
Visibility: 5 miles ( 8 km)
Ceiling: at least 12,000 feet AGL
Clouds: sky clear below 12,000 feet AGL
Weather: no significant weather observed at this time

METAR text: OEDF 030100Z 25004KT CAVOK 29/22 Q1001 NOSIG
Conditions at: OEDF (KING FAHD INTL , SA) observed 0100 UTC 03 June 2020
Temperature: 29.0°C (84°F)
Dewpoint: 22.0°C (72°F) [RH = 66%]
Pressure (altimeter): 29.56 inches Hg (1001.0 mb)
Winds: from the WSW (250 degrees) at 5 MPH (4 knots; 2.1 m/s)
Visibility: 6 or more miles (10+ km)
Ceiling: ceiling and visibility are OK
Clouds: unknown
Weather: no significant weather observed at this time

METAR text: OEDF 030000Z 20006KT CAVOK 29/21 Q1001 NOSIG
Conditions at: OEDF (KING FAHD INTL , SA) observed 0000 UTC 03 June 2020
Temperature: 29.0°C (84°F)
Dewpoint: 21.0°C (70°F) [RH = 62%]
Pressure (altimeter): 29.56 inches Hg (1001.0 mb)
Winds: from the SSW (200 degrees) at 7 MPH (6 knots; 3.1 m/s)
Visibility: 6 or more miles (10+ km)
Ceiling: ceiling and visibility are OK
Clouds: unknown
Weather: no significant weather observed at this time

METAR text: OEDF 022300Z 23006KT CAVOK 29/21 Q1001 NOSIG
Conditions at: OEDF (KING FAHD INTL , SA) observed 2300 UTC 02 June 2020
Temperature: 29.0°C (84°F)
Dewpoint: 21.0°C (70°F) [RH = 62%]
Pressure (altimeter): 29.56 inches Hg (1001.0 mb)
Winds: from the SW (230 degrees) at 7 MPH (6 knots; 3.1 m/s)
Visibility: 6 or more miles (10+ km)
Ceiling: ceiling and visibility are OK
Clouds: unknown
Weather: no significant weather observed at this time

METAR text: OEDF 022200Z 14003KT CAVOK 30/21 Q1001 NOSIG
Conditions at: OEDF (KING FAHD INTL , SA) observed 2200 UTC 02 June 2020
Temperature: 30.0°C (86°F)
Dewpoint: 21.0°C (70°F) [RH = 59%]
Pressure (altimeter): 29.56 inches Hg (1001.0 mb)
Winds: from the SE (140 degrees) at 3 MPH (3 knots; 1.5 m/s)
Visibility: 6 or more miles (10+ km)
Ceiling: ceiling and visibility are OK
Clouds: unknown
Weather: no significant weather observed at this time

METAR text: OEDF 022100Z 00000KT CAVOK 30/21 Q1002 NOSIG
Conditions at: OEDF (KING FAHD INTL , SA) observed 2100 UTC 02 June 2020
Temperature: 30.0°C (86°F)
Dewpoint: 21.0°C (70°F) [RH = 59%]
Pressure (altimeter): 29.59 inches Hg (1002.0 mb)
Winds: calm
Visibility: 6 or more miles (10+ km)
Ceiling: ceiling and visibility are OK
Clouds: unknown
Weather: no significant weather observed at this time

METAR text: OEDF 022000Z 00000KT CAVOK 31/23 Q1003 NOSIG
Conditions at: OEDF (KING FAHD INTL , SA) observed 2000 UTC 02 June 2020
Temperature: 31.0°C (88°F)
Dewpoint: 23.0°C (73°F) [RH = 63%]
Pressure (altimeter): 29.62 inches Hg (1003.0 mb)
Winds: calm
Visibility: 6 or more miles (10+ km)
Ceiling: ceiling and visibility are OK
Clouds: unknown
Weather: no significant weather observed at this time

METAR text: OEDF 021900Z 10003KT CAVOK 33/22 Q1003 NOSIG
Conditions at: OEDF (KING FAHD INTL , SA) observed 1900 UTC 02 June 2020
Temperature: 33.0°C (91°F)
Dewpoint: 22.0°C (72°F) [RH = 53%]
Pressure (altimeter): 29.62 inches Hg (1003.0 mb)
Winds: from the E (100 degrees) at 3 MPH (3 knots; 1.5 m/s)
Visibility: 6 or more miles (10+ km)
Ceiling: ceiling and visibility are OK
Clouds: unknown
Weather: no significant weather observed at this time

METAR text: OEDF 021800Z 06003KT CAVOK 33/21 Q1003 NOSIG
Conditions at: OEDF (KING FAHD INTL , SA) observed 1800 UTC 02 June 2020
Temperature: 33.0°C (91°F)
Dewpoint: 21.0°C (70°F) [RH = 49%]
Pressure (altimeter): 29.62 inches Hg (1003.0 mb)
Winds: from the ENE (60 degrees) at 3 MPH (3 knots; 1.5 m/s)
Visibility: 6 or more miles (10+ km)
Ceiling: ceiling and visibility are OK
Clouds: unknown
Weather: no significant weather observed at this time

METAR text: OEDF 021700Z 07008KT CAVOK 34/22 Q1002 NOSIG
Conditions at: OEDF (KING FAHD INTL , SA) observed 1700 UTC 02 June 2020
Temperature: 34.0°C (93°F)
Dewpoint: 22.0°C (72°F) [RH = 50%]
Pressure (altimeter): 29.59 inches Hg (1002.0 mb)
Winds: from the ENE (70 degrees) at 9 MPH (8 knots; 4.1 m/s)
Visibility: 6 or more miles (10+ km)
Ceiling: ceiling and visibility are OK
Clouds: unknown
Weather: no significant weather observed at this time

METAR text: OEDF 021600Z 06007KT CAVOK 35/22 Q1001 NOSIG
Conditions at: OEDF (KING FAHD INTL , SA) observed 1600 UTC 02 June 2020
Temperature: 35.0°C (95°F)
Dewpoint: 22.0°C (72°F) [RH = 47%]
Pressure (altimeter): 29.56 inches Hg (1001.0 mb)
Winds: from the ENE (60 degrees) at 8 MPH (7 knots; 3.6 m/s)
Visibility: 6 or more miles (10+ km)
Ceiling: ceiling and visibility are OK
Clouds: unknown
Weather: no significant weather observed at this time

METAR text: OEDF 021500Z 06011KT CAVOK 36/22 Q1001 NOSIG
Conditions at: OEDF (KING FAHD INTL , SA) observed 1500 UTC 02 June 2020
Temperature: 36.0°C (97°F)
Dewpoint: 22.0°C (72°F) [RH = 45%]
Pressure (altimeter): 29.56 inches Hg (1001.0 mb)
Winds: from the ENE (60 degrees) at 13 MPH (11 knots; 5.7 m/s)
Visibility: 6 or more miles (10+ km)
Ceiling: ceiling and visibility are OK
Clouds: unknown
Weather: no significant weather observed at this time

METAR text: OEDF 021400Z 07012KT CAVOK 41/20 Q1000 NOSIG
Conditions at: OEDF (KING FAHD INTL , SA) observed 1400 UTC 02 June 2020
Temperature: 41.0°C (106°F)
Dewpoint: 20.0°C (68°F) [RH = 30%]
Pressure (altimeter): 29.53 inches Hg (1000.0 mb)
Winds: from the ENE (70 degrees) at 14 MPH (12 knots; 6.2 m/s)
Visibility: 6 or more miles (10+ km)
Ceiling: ceiling and visibility are OK
Clouds: unknown
Weather: no significant weather observed at this time

METAR text: OEDF 021300Z 06013KT CAVOK 42/19 Q1000 NOSIG
Conditions at: OEDF (KING FAHD INTL , SA) observed 1300 UTC 02 June 2020
Temperature: 42.0°C (108°F)
Dewpoint: 19.0°C (66°F) [RH = 27%]
Pressure (altimeter): 29.53 inches Hg (1000.0 mb)
Winds: from the ENE (60 degrees) at 15 MPH (13 knots; 6.7 m/s)
Visibility: 6 or more miles (10+ km)
Ceiling: ceiling and visibility are OK
Clouds: unknown
Weather: no significant weather observed at this time

METAR text: OEDF 021200Z 06015KT CAVOK 44/24 Q1000 NOSIG
Conditions at: OEDF (KING FAHD INTL , SA) observed 1200 UTC 02 June 2020
Temperature: 44.0°C (111°F)
Dewpoint: 24.0°C (75°F) [RH = 33%]
Pressure (altimeter): 29.53 inches Hg (1000.0 mb)
Winds: from the ENE (60 degrees) at 17 MPH (15 knots; 7.7 m/s)
Visibility: 6 or more miles (10+ km)
Ceiling: ceiling and visibility are OK
Clouds: unknown
Weather: no significant weather observed at this time

METAR text: OEDF 021100Z 31005KT CAVOK 48/08 Q1001 NOSIG
Conditions at: OEDF (KING FAHD INTL , SA) observed 1100 UTC 02 June 2020
Temperature: 48.0°C (118°F)
Dewpoint: 8.0°C (46°F) [RH = 10%]
Pressure (altimeter): 29.56 inches Hg (1001.0 mb)
Winds: from the NW (310 degrees) at 6 MPH (5 knots; 2.6 m/s)
Visibility: 6 or more miles (10+ km)
Ceiling: ceiling and visibility are OK
Clouds: unknown
Weather: no significant weather observed at this time

METAR text: OEDF 021000Z VRB03KT CAVOK 47/16 Q1001 NOSIG
Conditions at: OEDF (KING FAHD INTL , SA) observed 1000 UTC 02 June 2020
Temperature: 47.0°C (117°F)
Dewpoint: 16.0°C (61°F) [RH = 17%]
Pressure (altimeter): 29.56 inches Hg (1001.0 mb)
Winds: variable direction winds at 3 MPH (3 knots; 1.5 m/s)
Visibility: 6 or more miles (10+ km)
Ceiling: ceiling and visibility are OK
Clouds: unknown
Weather: no significant weather observed at this time

METAR text: OEDF 020900Z VRB03KT CAVOK 47/17 Q1002 NOSIG
Conditions at: OEDF (KING FAHD INTL , SA) observed 0900 UTC 02 June 2020
Temperature: 47.0°C (117°F)
Dewpoint: 17.0°C (63°F) [RH = 18%]
Pressure (altimeter): 29.59 inches Hg (1002.0 mb)
Winds: variable direction winds at 3 MPH (3 knots; 1.5 m/s)
Visibility: 6 or more miles (10+ km)
Ceiling: ceiling and visibility are OK
Clouds: unknown
Weather: no significant weather observed at this time

METAR text: OEDF 020800Z 17007KT CAVOK 45/15 Q1003 NOSIG
Conditions at: OEDF (KING FAHD INTL , SA) observed 0800 UTC 02 June 2020
Temperature: 45.0°C (113°F)
Dewpoint: 15.0°C (59°F) [RH = 18%]
Pressure (altimeter): 29.62 inches Hg (1003.0 mb)
Winds: from the S (170 degrees) at 8 MPH (7 knots; 3.6 m/s)
Visibility: 6 or more miles (10+ km)
Ceiling: ceiling and visibility are OK
Clouds: unknown
Weather: no significant weather observed at this time

METAR text: OEDF 020700Z 19010KT CAVOK 42/12 Q1003 NOSIG
Conditions at: OEDF (KING FAHD INTL , SA) observed 0700 UTC 02 June 2020
Temperature: 42.0°C (108°F)
Dewpoint: 12.0°C (54°F) [RH = 17%]
Pressure (altimeter): 29.62 inches Hg (1003.0 mb)
Winds: from the S (190 degrees) at 12 MPH (10 knots; 5.1 m/s)
Visibility: 6 or more miles (10+ km)
Ceiling: ceiling and visibility are OK
Clouds: unknown
Weather: no significant weather observed at this time

METAR text: OEDF 020600Z 17006KT CAVOK 40/12 Q1004 NOSIG
Conditions at: OEDF (KING FAHD INTL , SA) observed 0600 UTC 02 June 2020
Temperature: 40.0°C (104°F)
Dewpoint: 12.0°C (54°F) [RH = 19%]
Pressure (altimeter): 29.65 inches Hg (1004.0 mb)
Winds: from the S (170 degrees) at 7 MPH (6 knots; 3.1 m/s)
Visibility: 6 or more miles (10+ km)
Ceiling: ceiling and visibility are OK
Clouds: unknown
Weather: no significant weather observed at this time

Forecast for: OEDF (KING FAHD INTL , SA)
Text: TAF OEDF 030900Z 0312/0412 03015KT 8000 NSC
Forecast period: 1200 to 1600 UTC 03 June 2020
Forecast type: FROM: standard forecast or significant change
Winds: from the NNE (30 degrees) at 17 MPH (15 knots; 7.7 m/s)
Visibility: 5 miles (8 km)
Ceiling: unknown
Clouds: missing
Weather: no significant weather forecast for this period
Text: BECMG 0316/0318 VRB03KT
Forecast period: 1600 UTC 03 June 2020 to 1200 UTC 04 June 2020
Forecast type: BECOMING: Conditions expected to become as follows by 1800 UTC 03 June 2020
Winds: variable direction winds at 3 MPH (3 knots; 1.5 m/s)
Visibility: 5 miles (8 km)
Ceiling: unknown
Clouds: missing
Weather: no significant weather forecast for this period